Bill Jr — WCO6976 — position and weather

sailwx.info

Track history (hours):
 
Tides and Currents Weather Stations Pressure Air Temp Water Temp Dewpoint Dewpoint Depression Visibility Wind Speed Wind Dir Waves Ship Positions

Bill Jr

Owner: DAWSON VESSELS INC, MOBILE, AL. More information available from US FCC via Universal Licensing System and Coast Guard Vessel Documentation Center.

Last reported at 2015-May-04 11:24 UTC. Time now 2015-May-05 10:13 UTC.
Position N 29°56' W 090°08'.

Length 21 m.

MMSI: 366976750.

Date/timePositionNaut miles runAvg speedWind from/ knotsBaromVisibWave heightAir tempDewpointWater temp
2015-May-04 11:24N 29°56' W 090°08'0 0.1
2015-May-04 07:32N 29°56' W 090°08'0 0.0
2015-May-04 05:14N 29°56' W 090°08'0 0.1
2015-May-04 04:32N 29°56' W 090°08'0 0.0
2015-May-04 03:21N 29°56' W 090°08'0 0.0
2015-May-04 02:33N 29°56' W 090°08'0 0.0
2015-May-04 01:18N 29°56' W 090°08'0 0.1
2015-May-04 00:21N 29°56' W 090°08'0 0.1
2015-May-03 23:26N 29°56' W 090°08'0 0.0
2015-May-03 22:24N 29°56' W 090°08'0 0.0
2015-May-03 05:26N 29°56' W 090°08'0 0.1
2015-May-03 03:23N 29°56' W 090°08'0 0.1
2015-May-03 01:23N 29°56' W 090°08'0 0.1
2015-May-02 22:32N 29°56' W 090°09'0 0.1
2015-May-02 21:29N 29°56' W 090°08'0 0.1
2015-May-02 19:19N 29°56' W 090°08'0 0.2
2015-May-02 18:19N 29°56' W 090°08'0 0.1
2015-May-02 16:06N 29°56' W 090°09'0 0.3
2015-May-02 15:21N 29°56' W 090°09'1 0.6
2015-May-02 14:28N 29°56' W 090°09'1 0.6
2015-May-02 13:33N 29°56' W 090°08'0 0.0
2015-May-02 11:29N 29°56' W 090°08'0 0.0
2015-May-02 06:32N 29°56' W 090°08'0 0.0
2015-May-01 04:16N 29°56' W 090°08'0 0.0
2015-May-01 03:05N 29°56' W 090°08'2 0.5
2015-Apr-30 23:17N 29°55' W 090°08'2 0.4
2015-Apr-30 19:21N 29°56' W 090°08'0 0.3
2015-Apr-30 18:26N 29°56' W 090°08'0 0.0
2015-Apr-30 17:09N 29°56' W 090°08'0 0.4
2015-Apr-30 16:21N 29°56' W 090°09'0 0.1
2015-Apr-30 15:19N 29°56' W 090°08'0 0.2
2015-Apr-30 14:27N 29°56' W 090°09'0 0.4
2015-Apr-30 13:31N 29°56' W 090°08'0 0.0
2015-Apr-30 12:30N 29°56' W 090°08'0 0.0
2015-Apr-30 11:31N 29°56' W 090°08'0 0.0
2015-Apr-30 10:25N 29°56' W 090°08'0 0.0
2015-Apr-30 09:31N 29°56' W 090°08'0 0.0
2015-Apr-30 08:24N 29°56' W 090°08'0 0.0
2015-Apr-30 07:30N 29°56' W 090°08'0 0.3
2015-Apr-30 06:33N 29°56' W 090°08'0 0.1
2015-Apr-30 05:09N 29°56' W 090°08'5 0.3
2015-Apr-29 12:23N 29°57' W 090°02'2 0.3
2015-Apr-29 06:07N 29°56' W 090°00'7 1.8
2015-Apr-29 02:07N 29°55' W 090°08'1 0.8
2015-Apr-29 00:30N 29°56' W 090°08'0 0.2
2015-Apr-28 23:26N 29°56' W 090°08'0 0.0
2015-Apr-28 21:14N 29°56' W 090°08'0 0.2
2015-Apr-28 20:24N 29°57' W 090°08'0 0.1
2015-Apr-28 18:30N 29°56' W 090°08'0 0.0
2015-Apr-28 17:27N 29°56' W 090°08'0 0.0
2015-Apr-28 16:07N 29°56' W 090°08'0 0.0
2015-Apr-28 15:27N 29°56' W 090°08'0 0.0
2015-Apr-28 14:18N 29°56' W 090°08'0 0.0
2015-Apr-28 13:30N 29°56' W 090°08'0 0.0
2015-Apr-28 12:31N 29°56' W 090°08'0 0.0
2015-Apr-28 11:33N 29°56' W 090°08'0 0.0
2015-Apr-28 10:31N 29°56' W 090°08'0 0.0
2015-Apr-28 05:17N 29°56' W 090°08'0 0.1
2015-Apr-28 04:13N 29°56' W 090°08'0 0.1
2015-Apr-28 00:31N 29°57' W 090°08'0 0.4
2015-Apr-27 23:31N 29°56' W 090°08'0 0.0
2015-Apr-27 22:33N 29°56' W 090°08'0 0.0
2015-Apr-27 21:32N 29°56' W 090°08'0 0.0
2015-Apr-27 19:20N 29°56' W 090°08'0 0.0
2015-Apr-27 16:21N 29°56' W 090°08'0 0.0
2015-Apr-26 11:23N 29°56' W 090°08'0 0.2
2015-Apr-26 09:04N 29°57' W 090°08'0 0.4
2015-Apr-26 08:11N 29°56' W 090°08'0 0.5
2015-Apr-26 07:33N 29°57' W 090°08'1 0.5
2015-Apr-26 06:33N 29°56' W 090°08'0 0.3
2015-Apr-26 05:28N 29°56' W 090°08'0 0.0
2015-Apr-26 04:31N 29°56' W 090°08'0 0.0
2015-Apr-26 03:20N 29°56' W 090°08'0 0.0
2015-Apr-26 02:21N 29°56' W 090°08'0 0.0
2015-Apr-26 01:30N 29°56' W 090°08'0 0.0
2015-Apr-26 00:31N 29°56' W 090°08'0 0.0
2015-Apr-25 23:32N 29°56' W 090°08'0 0.0
2015-Apr-25 22:33N 29°56' W 090°08'0 0.0
2015-Apr-25 21:25N 29°56' W 090°08'0 0.1
2015-Apr-25 20:18N 29°56' W 090°08'0 0.1
2015-Apr-25 19:10N 29°56' W 090°08'0 0.0
2015-Apr-25 18:21N 29°56' W 090°08'0 0.0
2015-Apr-24 14:26N 29°56' W 090°08'0 0.0
2015-Apr-24 11:25N 29°56' W 090°08'  
Track history (hours):
 
Tides and Currents Weather Stations Pressure Air Temp Water Temp Dewpoint Dewpoint Depression Visibility Wind Speed Wind Dir Waves Ship Positions

Bill Jr

Owner: DAWSON VESSELS INC, MOBILE, AL. More information available from US FCC via Universal Licensing System and Coast Guard Vessel Documentation Center.

Last reported at 2015-May-04 11:24 UTC. Time now 2015-May-05 10:13 UTC.
Position N 29°56' W 090°08'.

Length 21 m.

MMSI: 366976750.

Date/timePositionNaut miles runAvg speedWind from/ knotsBaromVisibWave heightAir tempDewpointWater temp
2015-May-04 11:24N 29°56' W 090°08'0 0.1
2015-May-04 07:32N 29°56' W 090°08'0 0.0
2015-May-04 05:14N 29°56' W 090°08'0 0.1
2015-May-04 04:32N 29°56' W 090°08'0 0.0
2015-May-04 03:21N 29°56' W 090°08'0 0.0
2015-May-04 02:33N 29°56' W 090°08'0 0.0
2015-May-04 01:18N 29°56' W 090°08'0 0.1
2015-May-04 00:21N 29°56' W 090°08'0 0.1
2015-May-03 23:26N 29°56' W 090°08'0 0.0
2015-May-03 22:24N 29°56' W 090°08'0 0.0
2015-May-03 05:26N 29°56' W 090°08'0 0.1
2015-May-03 03:23N 29°56' W 090°08'0 0.1
2015-May-03 01:23N 29°56' W 090°08'0 0.1
2015-May-02 22:32N 29°56' W 090°09'0 0.1
2015-May-02 21:29N 29°56' W 090°08'0 0.1
2015-May-02 19:19N 29°56' W 090°08'0 0.2
2015-May-02 18:19N 29°56' W 090°08'0 0.1
2015-May-02 16:06N 29°56' W 090°09'0 0.3
2015-May-02 15:21N 29°56' W 090°09'1 0.6
2015-May-02 14:28N 29°56' W 090°09'1 0.6
2015-May-02 13:33N 29°56' W 090°08'0 0.0
2015-May-02 11:29N 29°56' W 090°08'0 0.0
2015-May-02 06:32N 29°56' W 090°08'0 0.0
2015-May-01 04:16N 29°56' W 090°08'0 0.0
2015-May-01 03:05N 29°56' W 090°08'2 0.5
2015-Apr-30 23:17N 29°55' W 090°08'2 0.4
2015-Apr-30 19:21N 29°56' W 090°08'0 0.3
2015-Apr-30 18:26N 29°56' W 090°08'0 0.0
2015-Apr-30 17:09N 29°56' W 090°08'0 0.4
2015-Apr-30 16:21N 29°56' W 090°09'0 0.1
2015-Apr-30 15:19N 29°56' W 090°08'0 0.2
2015-Apr-30 14:27N 29°56' W 090°09'0 0.4
2015-Apr-30 13:31N 29°56' W 090°08'0 0.0
2015-Apr-30 12:30N 29°56' W 090°08'0 0.0
2015-Apr-30 11:31N 29°56' W 090°08'0 0.0
2015-Apr-30 10:25N 29°56' W 090°08'0 0.0
2015-Apr-30 09:31N 29°56' W 090°08'0 0.0
2015-Apr-30 08:24N 29°56' W 090°08'0 0.0
2015-Apr-30 07:30N 29°56' W 090°08'0 0.3
2015-Apr-30 06:33N 29°56' W 090°08'0 0.1
2015-Apr-30 05:09N 29°56' W 090°08'5 0.3
2015-Apr-29 12:23N 29°57' W 090°02'2 0.3
2015-Apr-29 06:07N 29°56' W 090°00'7 1.8
2015-Apr-29 02:07N 29°55' W 090°08'1 0.8
2015-Apr-29 00:30N 29°56' W 090°08'0 0.2
2015-Apr-28 23:26N 29°56' W 090°08'0 0.0
2015-Apr-28 21:14N 29°56' W 090°08'0 0.2
2015-Apr-28 20:24N 29°57' W 090°08'0 0.1
2015-Apr-28 18:30N 29°56' W 090°08'0 0.0
2015-Apr-28 17:27N 29°56' W 090°08'0 0.0
2015-Apr-28 16:07N 29°56' W 090°08'0 0.0
2015-Apr-28 15:27N 29°56' W 090°08'0 0.0
2015-Apr-28 14:18N 29°56' W 090°08'0 0.0
2015-Apr-28 13:30N 29°56' W 090°08'0 0.0
2015-Apr-28 12:31N 29°56' W 090°08'0 0.0
2015-Apr-28 11:33N 29°56' W 090°08'0 0.0
2015-Apr-28 10:31N 29°56' W 090°08'0 0.0
2015-Apr-28 05:17N 29°56' W 090°08'0 0.1
2015-Apr-28 04:13N 29°56' W 090°08'0 0.1
2015-Apr-28 00:31N 29°57' W 090°08'0 0.4
2015-Apr-27 23:31N 29°56' W 090°08'0 0.0
2015-Apr-27 22:33N 29°56' W 090°08'0 0.0
2015-Apr-27 21:32N 29°56' W 090°08'0 0.0
2015-Apr-27 19:20N 29°56' W 090°08'0 0.0
2015-Apr-27 16:21N 29°56' W 090°08'0 0.0
2015-Apr-26 11:23N 29°56' W 090°08'0 0.2
2015-Apr-26 09:04N 29°57' W 090°08'0 0.4
2015-Apr-26 08:11N 29°56' W 090°08'0 0.5
2015-Apr-26 07:33N 29°57' W 090°08'1 0.5
2015-Apr-26 06:33N 29°56' W 090°08'0 0.3
2015-Apr-26 05:28N 29°56' W 090°08'0 0.0
2015-Apr-26 04:31N 29°56' W 090°08'0 0.0
2015-Apr-26 03:20N 29°56' W 090°08'0 0.0
2015-Apr-26 02:21N 29°56' W 090°08'0 0.0
2015-Apr-26 01:30N 29°56' W 090°08'0 0.0
2015-Apr-26 00:31N 29°56' W 090°08'0 0.0
2015-Apr-25 23:32N 29°56' W 090°08'0 0.0
2015-Apr-25 22:33N 29°56' W 090°08'0 0.0
2015-Apr-25 21:25N 29°56' W 090°08'0 0.1
2015-Apr-25 20:18N 29°56' W 090°08'0 0.1
2015-Apr-25 19:10N 29°56' W 090°08'0 0.0
2015-Apr-25 18:21N 29°56' W 090°08'0 0.0
2015-Apr-24 14:26N 29°56' W 090°08'0 0.0
2015-Apr-24 11:25N 29°56' W 090°08'  

Dump ship's entire track history